NCAR-RAP Real-Time Weather Data

Output produced by METARs form (10 April 2020  07:27 UTC)
found at http://weather.rap.ucar.edu/surface/
 
KOFK 100656Z AUTO 23003KT 10SM CLR M05/M09 A3021 RMK AO2 SLP244 T10501094
KOFK 100556Z AUTO 00000KT 10SM CLR M03/M09 A3021 RMK AO2 SLP245 T10331094 10039 21044 400831044 57007
KOFK 100456Z AUTO 27005KT 10SM CLR M03/M09 A3021 RMK AO2 SLP246 T10331094
KOFK 100356Z AUTO 34006KT 10SM CLR M03/M09 A3023 RMK AO2 SLP251 T10331094
KOFK 100256Z AUTO 28004KT 10SM CLR M02/M09 A3023 RMK AO2 SLP251 T10171089 53013
KOFK 100156Z AUTO 35008KT 10SM CLR 01/M09 A3021 RMK AO2 SLP243 T00061094
KOFK 100056Z AUTO 34011G21KT 10SM CLR 02/M10 A3020 RMK AO2 PK WND 36027/0018 SLP239 T00221100
KOFK 092356Z AUTO 35016G27KT 10SM CLR 04/M10 A3019 RMK AO2 PK WND 33030/2311 SLP237 T00391100 10083 20039 53016
KOFK 092256Z AUTO 34020G32KT 10SM CLR 05/M11 A3017 RMK AO2 PK WND 35036/2200 SLP228 T00501106
KOFK 092156Z AUTO 33025G33KT 10SM CLR 06/M11 A3015 RMK AO2 PK WND 34038/2105 SLP223 T00611111
KOFK 092056Z AUTO 33023G33KT 10SM CLR 07/M09 A3015 RMK AO2 PK WND 32037/2030 SLP219 T00671089 51007
KOFK 091956Z AUTO 34029G37KT 10SM FEW060 07/M09 A3014 RMK AO2 PK WND 35039/1859 SLP216 T00671089
KOFK 091856Z AUTO 32020G34KT 10SM FEW060 07/M09 A3014 RMK AO2 PK WND 34042/1845 SLP214 T00721089
KOFK 091756Z AUTO 32029G37KT 10SM CLR 08/M08 A3013 RMK AO2 PK WND 32039/1738 SLP210 T00781083 10083 20022 51018
KOFK 091656Z AUTO 33021G38KT 10SM CLR 08/M08 A3012 RMK AO2 PK WND 32041/1559 SLP208 T00781078
KOFK 091556Z AUTO 32029G40KT 10SM CLR 08/M09 A3009 RMK AO2 PK WND 33041/1536 SLP197 T00781089
KOFK 091456Z AUTO 31024G36KT 10SM CLR 07/M08 A3007 RMK AO2 PK WND 34036/1450 SLP191 T00721083 51010
KOFK 091356Z AUTO 29012KT 10SM CLR 06/M05 A3006 RMK AO2 SLP187 T00561050
KOFK 091256Z AUTO 27010KT 10SM CLR 03/M04 A3005 RMK AO2 SLP184 T00331044
KOFK 091156Z AUTO 27008KT 10SM SCT120 02/M06 A3004 RMK AO2 SLP179 T00221056 10056 20011 58006
KOFK 091056Z AUTO 28008KT 10SM CLR 03/M06 A3006 RMK AO2 SLP186 T00281061
KOFK 090956Z AUTO 25011KT 10SM BKN120 02/M06 A3007 RMK AO2 SLP190 T00221061
KOFK 090856Z AUTO 30009KT 10SM CLR 02/M06 A3006 RMK AO2 SLP185 T00221061 58007